createdAt,value
2019-05-19T00:00:07.247Z,99188.56
2019-05-19T00:02:33.978Z,99193.16
2019-05-19T00:05:00.716Z,99190.93
2019-05-19T00:07:27.463Z,99182.69
2019-05-19T00:09:54.198Z,99185.00
2019-05-19T00:12:20.942Z,99185.28
2019-05-19T00:14:47.663Z,99185.81
2019-05-19T00:17:14.487Z,99187.59
2019-05-19T00:19:41.223Z,99180.41
2019-05-19T00:22:07.968Z,99174.88
2019-05-19T00:24:34.698Z,99170.19
2019-05-19T00:27:01.461Z,99169.10
2019-05-19T00:29:28.187Z,99165.05
2019-05-19T00:31:54.939Z,99166.55
2019-05-19T00:34:21.658Z,99163.07
2019-05-19T00:36:48.396Z,99162.02
2019-05-19T00:39:15.138Z,99159.48
2019-05-19T00:41:41.866Z,99155.97
2019-05-19T00:44:08.601Z,99156.87
2019-05-19T00:46:35.332Z,99159.34
2019-05-19T00:49:02.094Z,99155.47
2019-05-19T00:51:28.830Z,99151.67
2019-05-19T00:53:55.575Z,99151.84
2019-05-19T00:56:22.327Z,99152.05
2019-05-19T00:58:49.098Z,99158.56
2019-05-19T01:01:15.886Z,99144.45
2019-05-19T01:03:42.639Z,99148.83
2019-05-19T01:06:09.395Z,99134.63
2019-05-19T01:08:36.122Z,99145.30
2019-05-19T01:11:02.882Z,99144.06
2019-05-19T01:13:29.618Z,99136.83
2019-05-19T01:15:56.341Z,99140.64
2019-05-19T01:18:23.084Z,99132.28
2019-05-19T01:20:49.810Z,99140.86
2019-05-19T01:23:16.558Z,99130.02
2019-05-19T01:25:43.285Z,99141.02
2019-05-19T01:28:10.034Z,99139.34
2019-05-19T01:30:36.981Z,99138.96
2019-05-19T01:33:03.718Z,99141.54
2019-05-19T01:35:30.450Z,99144.69
2019-05-19T01:37:57.198Z,99150.05
2019-05-19T01:40:23.931Z,99143.97
2019-05-19T01:42:50.670Z,99136.44
2019-05-19T01:45:17.422Z,99139.86
2019-05-19T01:47:44.174Z,99134.38
2019-05-19T01:50:18.779Z,99130.86
2019-05-19T01:52:37.647Z,99132.95
2019-05-19T01:55:04.422Z,99135.67
2019-05-19T01:57:31.146Z,99132.56
2019-05-19T01:59:57.910Z,99132.22
2019-05-19T02:02:24.646Z,99127.39
2019-05-19T02:04:51.467Z,99124.37
2019-05-19T02:07:18.190Z,99122.60
2019-05-19T02:09:44.955Z,99128.76
2019-05-19T02:12:11.674Z,99122.55
2019-05-19T02:14:38.414Z,99125.41
2019-05-19T02:17:05.160Z,99130.47
2019-05-19T02:19:31.915Z,99128.73
2019-05-19T02:21:58.630Z,99130.56
2019-05-19T02:24:25.386Z,99130.88
2019-05-19T02:26:52.119Z,99118.05
2019-05-19T02:29:18.857Z,99121.00
2019-05-19T02:31:45.609Z,99122.81
2019-05-19T02:34:12.447Z,99119.28
2019-05-19T02:36:39.179Z,99129.62
2019-05-19T02:39:05.934Z,99135.41
2019-05-19T02:41:32.690Z,99135.39
2019-05-19T02:43:59.394Z,99139.08
2019-05-19T02:46:26.125Z,99140.75
2019-05-19T02:48:53.145Z,99139.45
2019-05-19T02:51:19.901Z,99140.06
2019-05-19T02:53:46.623Z,99140.16
2019-05-19T02:56:13.355Z,99148.55
2019-05-19T02:58:40.081Z,99149.58
2019-05-19T03:01:06.839Z,99150.13
2019-05-19T03:03:33.582Z,99149.95
2019-05-19T03:06:00.323Z,99156.09
2019-05-19T03:08:27.047Z,99156.09
2019-05-19T03:10:53.798Z,99150.16
2019-05-19T03:13:20.523Z,99148.44
2019-05-19T03:15:47.258Z,99147.66
2019-05-19T03:18:13.981Z,99150.72
2019-05-19T03:20:40.727Z,99148.66
2019-05-19T03:23:07.510Z,99148.17
2019-05-19T03:25:34.290Z,99145.22
2019-05-19T03:28:01.039Z,99140.30
2019-05-19T03:30:53.345Z,99146.06
2019-05-19T03:33:22.572Z,99144.22
2019-05-19T03:35:49.311Z,99141.48
2019-05-19T03:38:16.073Z,99144.33
2019-05-19T03:40:42.831Z,99152.15
2019-05-19T03:43:09.635Z,99146.19
2019-05-19T03:45:36.373Z,99146.58
2019-05-19T03:48:03.099Z,99152.05
2019-05-19T03:50:29.846Z,99152.33
2019-05-19T03:52:56.582Z,99153.75
2019-05-19T03:55:23.343Z,99159.22
2019-05-19T03:57:50.067Z,99160.59
2019-05-19T04:00:16.801Z,99161.34
2019-05-19T04:02:43.547Z,99156.55
2019-05-19T04:05:10.283Z,99157.76
2019-05-19T04:07:37.031Z,99153.00
2019-05-19T04:10:04.074Z,99151.69
2019-05-19T04:12:30.855Z,99157.31
2019-05-19T04:14:57.576Z,99163.13
2019-05-19T04:17:24.326Z,99159.52
2019-05-19T04:19:51.055Z,99166.55
2019-05-19T04:22:17.843Z,99165.51
2019-05-19T04:24:44.712Z,99168.25
2019-05-19T04:27:11.490Z,99170.20
2019-05-19T04:29:39.536Z,99170.05
2019-05-19T04:32:04.962Z,99170.92
2019-05-19T04:34:31.701Z,99165.16
2019-05-19T04:36:58.512Z,99169.67
2019-05-19T04:39:25.186Z,99169.63
2019-05-19T04:41:51.920Z,99171.35
2019-05-19T04:44:18.680Z,99167.09
2019-05-19T04:46:45.401Z,99167.09
2019-05-19T04:49:12.228Z,99159.69
2019-05-19T04:51:38.987Z,99156.03
2019-05-19T04:54:05.710Z,99155.65
2019-05-19T04:56:32.463Z,99157.30
2019-05-19T04:58:59.191Z,99165.44
2019-05-19T05:01:25.919Z,99169.01
2019-05-19T05:03:52.683Z,99167.41
2019-05-19T05:06:19.410Z,99165.74
2019-05-19T05:08:46.162Z,99169.73
2019-05-19T05:11:12.902Z,99164.20
2019-05-19T05:13:39.642Z,99169.34
2019-05-19T05:16:06.391Z,99167.53
2019-05-19T05:18:33.133Z,99174.34
2019-05-19T05:20:59.863Z,99164.45
2019-05-19T05:23:26.612Z,99166.91
2019-05-19T05:25:53.345Z,99165.95
2019-05-19T05:28:20.190Z,99174.77
2019-05-19T05:30:47.069Z,99172.14
2019-05-19T05:33:13.830Z,99177.67
2019-05-19T05:35:40.574Z,99178.41
2019-05-19T05:38:07.327Z,99179.88
2019-05-19T05:40:34.194Z,99178.11
2019-05-19T05:43:00.955Z,99177.03
2019-05-19T05:45:27.670Z,99174.25
2019-05-19T05:47:54.410Z,99170.52
2019-05-19T05:50:21.151Z,99168.31
2019-05-19T05:52:48.078Z,99165.64
2019-05-19T05:55:14.844Z,99160.81
2019-05-19T05:57:41.574Z,99161.40
2019-05-19T06:00:08.386Z,99153.27
2019-05-19T06:02:35.127Z,99160.80
2019-05-19T06:05:01.954Z,99157.39
2019-05-19T06:07:28.666Z,99158.80
2019-05-19T06:09:55.490Z,99158.88
2019-05-19T06:12:22.206Z,99172.09
2019-05-19T06:14:48.955Z,99174.92
2019-05-19T06:17:15.704Z,99178.53
2019-05-19T06:19:42.451Z,99177.78
2019-05-19T06:22:09.179Z,99178.63
2019-05-19T06:24:35.938Z,99181.41
2019-05-19T06:27:02.662Z,99188.03
2019-05-19T06:29:29.427Z,99192.09
2019-05-19T06:31:58.961Z,99194.99
2019-05-19T06:34:25.695Z,99190.50
2019-05-19T06:36:55.102Z,99196.52
2019-05-19T06:39:19.386Z,99199.63
2019-05-19T06:41:46.111Z,99198.73
2019-05-19T06:44:12.903Z,99195.36
2019-05-19T06:46:39.634Z,99192.16
2019-05-19T06:49:06.389Z,99197.74
2019-05-19T06:51:33.122Z,99195.26
2019-05-19T06:53:59.863Z,99198.85
2019-05-19T06:56:26.622Z,99192.84
2019-05-19T06:58:53.427Z,99190.34
2019-05-19T07:01:20.183Z,99183.17
2019-05-19T07:03:46.930Z,99181.96
2019-05-19T07:06:13.678Z,99178.44
2019-05-19T07:08:40.418Z,99180.22
2019-05-19T07:11:07.174Z,99179.63
2019-05-19T07:13:33.925Z,99181.08
2019-05-19T07:16:00.653Z,99177.51
2019-05-19T07:18:27.368Z,99179.28
2019-05-19T07:20:54.111Z,99181.56
2019-05-19T07:23:28.097Z,99177.63
2019-05-19T07:25:47.705Z,99173.76
2019-05-19T07:28:14.837Z,99176.73
2019-05-19T07:30:41.598Z,99170.68
2019-05-19T07:33:08.401Z,99170.45
2019-05-19T07:35:35.599Z,99168.87
2019-05-19T07:38:02.416Z,99165.97
2019-05-19T07:40:29.147Z,99159.45
2019-05-19T07:42:56.306Z,99163.54
2019-05-19T07:45:23.158Z,99163.68
2019-05-19T07:47:49.910Z,99163.13
2019-05-19T07:50:16.774Z,99169.19
2019-05-19T07:52:43.505Z,99164.78
2019-05-19T07:55:10.307Z,99162.66
2019-05-19T07:57:37.052Z,99164.94
2019-05-19T08:00:04.992Z,99159.91
2019-05-19T08:02:31.100Z,99165.97
2019-05-19T08:04:57.791Z,99171.00
2019-05-19T08:07:24.520Z,99163.78
2019-05-19T08:09:51.250Z,99171.66
2019-05-19T08:12:18.002Z,99168.45
2019-05-19T08:14:44.722Z,99170.15
2019-05-19T08:17:11.462Z,99170.22
2019-05-19T08:19:38.216Z,99165.89
2019-05-19T08:22:04.950Z,99170.64
2019-05-19T08:24:31.698Z,99167.42
2019-05-19T08:26:58.475Z,99163.09
2019-05-19T08:29:25.206Z,99169.87
2019-05-19T08:31:51.946Z,99163.95
2019-05-19T08:34:18.678Z,99165.23
2019-05-19T08:36:45.598Z,99160.17
2019-05-19T08:39:12.150Z,99173.23
2019-05-19T08:41:38.981Z,99161.38
2019-05-19T08:44:05.728Z,99164.73
2019-05-19T08:46:32.571Z,99163.16
2019-05-19T08:48:59.327Z,99156.64
2019-05-19T08:51:26.096Z,99161.84
2019-05-19T08:53:52.803Z,99159.53
2019-05-19T08:56:19.555Z,99155.30
2019-05-19T08:58:46.283Z,99152.08
2019-05-19T09:01:13.010Z,99155.97
2019-05-19T09:03:39.765Z,99151.27
2019-05-19T09:06:06.578Z,99141.20
2019-05-19T09:08:33.326Z,99146.19
2019-05-19T09:11:00.162Z,99142.13
2019-05-19T09:13:27.318Z,99142.66
2019-05-19T09:15:54.137Z,99134.41
2019-05-19T09:18:20.890Z,99140.02
2019-05-19T09:20:47.639Z,99129.48
2019-05-19T09:23:14.382Z,99125.28
2019-05-19T09:25:41.110Z,99129.99
2019-05-19T09:28:07.954Z,99121.94
2019-05-19T09:30:34.710Z,99133.59
2019-05-19T09:33:01.594Z,99128.21
2019-05-19T09:35:28.265Z,99123.60
2019-05-19T09:37:55.062Z,99128.17
2019-05-19T09:40:21.862Z,99130.95
2019-05-19T09:42:48.613Z,99125.89
2019-05-19T09:45:15.397Z,99116.25
2019-05-19T09:47:42.213Z,99115.38
2019-05-19T09:50:08.956Z,99120.69
2019-05-19T09:52:35.698Z,99122.70
2019-05-19T09:55:02.474Z,99114.16
2019-05-19T09:57:29.215Z,99124.73
2019-05-19T09:59:55.949Z,99128.67
2019-05-19T10:02:22.747Z,99135.59
2019-05-19T10:04:49.474Z,99125.52
2019-05-19T10:07:16.202Z,99128.43
2019-05-19T10:10:01.861Z,99129.73
2019-05-19T10:12:28.834Z,99113.02
2019-05-19T10:14:55.584Z,99113.22
2019-05-19T10:17:22.313Z,99099.86
2019-05-19T10:19:49.069Z,99121.98
2019-05-19T10:22:15.894Z,99121.97
2019-05-19T10:24:59.204Z,99113.56
2019-05-19T10:27:09.502Z,99108.57
2019-05-19T10:29:36.262Z,99111.88
2019-05-19T10:32:03.011Z,99108.77
2019-05-19T10:34:29.758Z,99103.46
2019-05-19T10:36:56.566Z,99098.86
2019-05-19T10:39:23.323Z,99103.69
2019-05-19T10:41:50.074Z,99104.91
2019-05-19T10:44:16.859Z,99097.45
2019-05-19T10:46:43.593Z,99102.97
2019-05-19T10:49:10.351Z,99101.42
2019-05-19T10:51:37.098Z,99108.05
2019-05-19T10:54:03.870Z,99097.36
2019-05-19T10:56:30.606Z,99100.09
2019-05-19T10:58:57.355Z,99098.89
2019-05-19T11:01:24.305Z,99095.45
2019-05-19T11:03:51.044Z,99103.45
2019-05-19T11:06:17.850Z,99094.41
2019-05-19T11:08:44.590Z,99085.13
2019-05-19T11:11:11.346Z,99091.45
2019-05-19T11:13:38.063Z,99096.86
2019-05-19T11:16:04.815Z,99080.72
2019-05-19T11:18:31.557Z,99076.80
2019-05-19T11:20:58.318Z,99075.77
2019-05-19T11:23:25.034Z,99084.06
2019-05-19T11:25:57.648Z,99077.98
2019-05-19T11:28:24.580Z,99077.92
2019-05-19T11:31:01.008Z,99075.78
2019-05-19T11:33:29.776Z,99075.09
2019-05-19T11:35:58.789Z,99074.40
2019-05-19T11:38:28.938Z,99067.83
2019-05-19T11:40:59.266Z,99066.00
2019-05-19T11:43:29.250Z,99076.14
2019-05-19T11:45:58.243Z,99062.48
2019-05-19T11:48:26.882Z,99068.69
2019-05-19T11:50:55.943Z,99068.16
2019-05-19T11:53:24.834Z,99073.24
2019-05-19T11:56:05.710Z,99075.98
2019-05-19T11:58:22.124Z,99083.73
2019-05-19T12:00:49.720Z,99078.81
2019-05-19T12:03:20.684Z,99071.04
2019-05-19T12:05:48.700Z,99067.38
2019-05-19T12:08:17.391Z,99067.75
2019-05-19T12:10:53.816Z,99058.73
2019-05-19T12:13:21.526Z,99070.48
2019-05-19T12:15:52.159Z,99066.16
2019-05-19T12:18:21.297Z,99067.92
2019-05-19T12:20:49.519Z,99061.27
2019-05-19T12:23:18.976Z,99056.00
2019-05-19T12:25:49.424Z,99047.90
2019-05-19T12:28:19.385Z,99043.96
2019-05-19T12:30:50.790Z,99033.78
2019-05-19T12:33:21.663Z,99043.91
2019-05-19T12:35:50.775Z,99036.16
2019-05-19T12:38:21.777Z,99039.14
2019-05-19T12:40:53.581Z,99035.16
2019-05-19T12:43:23.386Z,99037.16
2019-05-19T12:45:55.687Z,99026.95
2019-05-19T12:48:24.241Z,99015.50
2019-05-19T12:50:52.238Z,99020.55
2019-05-19T12:53:21.641Z,99004.66
2019-05-19T12:55:51.039Z,99006.41
2019-05-19T12:58:22.306Z,99015.23
2019-05-19T13:00:51.474Z,99013.59
2019-05-19T13:03:24.564Z,99017.99
2019-05-19T13:05:55.924Z,99014.19
2019-05-19T13:08:24.080Z,99007.53
2019-05-19T13:10:53.167Z,98996.33
2019-05-19T13:13:23.695Z,98992.23
2019-05-19T13:16:00.700Z,98988.43
2019-05-19T13:18:33.465Z,98977.58
2019-05-19T13:21:01.959Z,98981.45
2019-05-19T13:23:35.673Z,98983.05
2019-05-19T13:26:00.365Z,98977.38
2019-05-19T13:28:29.268Z,98975.28
2019-05-19T13:30:58.034Z,98981.48
2019-05-19T13:33:25.674Z,98975.05
2019-05-19T13:35:57.966Z,98980.91
2019-05-19T13:38:26.735Z,98981.44
2019-05-19T13:40:55.024Z,98984.11
2019-05-19T13:43:28.313Z,98987.33
2019-05-19T13:45:55.961Z,98973.73
2019-05-19T13:48:24.461Z,98956.91
2019-05-19T13:50:55.533Z,98963.64
2019-05-19T13:53:29.108Z,98958.84
2019-05-19T13:55:54.109Z,98959.41
2019-05-19T13:58:26.085Z,98953.50
2019-05-19T14:00:58.196Z,98958.17
2019-05-19T14:03:31.019Z,98955.11
2019-05-19T14:05:59.317Z,98956.84
2019-05-19T14:08:30.972Z,98943.41
2019-05-19T14:10:59.106Z,98934.63
2019-05-19T14:13:28.268Z,98937.62
2019-05-19T14:15:56.710Z,98942.84
2019-05-19T14:18:27.024Z,98946.63
2019-05-19T14:20:57.964Z,98957.66
2019-05-19T14:23:26.710Z,98948.72
2019-05-19T14:25:56.438Z,98939.67
2019-05-19T14:28:26.847Z,98928.29
2019-05-19T14:30:58.037Z,98938.29
2019-05-19T14:33:26.606Z,98939.41
2019-05-19T14:35:57.513Z,98947.18
2019-05-19T14:38:29.004Z,98943.17
2019-05-19T14:40:59.947Z,98935.50
2019-05-19T14:43:29.961Z,98940.69
2019-05-19T14:45:59.754Z,98932.80
2019-05-19T14:48:28.746Z,98935.19
2019-05-19T14:50:59.911Z,98930.12
2019-05-19T14:53:29.394Z,98927.77
2019-05-19T14:56:00.429Z,98921.91
2019-05-19T14:58:27.910Z,98916.56
2019-05-19T15:00:55.649Z,98921.36
2019-05-19T15:03:24.337Z,98913.95
2019-05-19T15:05:55.142Z,98903.27
2019-05-19T15:08:22.845Z,98911.19
2019-05-19T15:10:51.161Z,98903.53
2019-05-19T15:13:20.613Z,98902.02
2019-05-19T15:15:49.444Z,98894.30
2019-05-19T15:18:16.788Z,98908.92
2019-05-19T15:20:45.305Z,98896.92
2019-05-19T15:23:15.386Z,98899.61
2019-05-19T15:25:44.372Z,98901.63
2019-05-19T15:28:13.625Z,98892.23
2019-05-19T15:30:40.991Z,98899.75
2019-05-19T15:33:09.130Z,98886.03
2019-05-19T15:35:37.995Z,98885.65
2019-05-19T15:38:05.546Z,98894.92
2019-05-19T15:40:33.298Z,98897.61
2019-05-19T15:43:01.286Z,98901.42
2019-05-19T15:45:30.079Z,98906.38
2019-05-19T15:47:59.543Z,98902.73
2019-05-19T15:50:27.466Z,98907.30
2019-05-19T15:52:55.493Z,98903.05
2019-05-19T15:55:25.722Z,98905.45
2019-05-19T15:57:53.588Z,98910.42
2019-05-19T16:00:22.513Z,98911.02
2019-05-19T16:02:51.468Z,98901.20
2019-05-19T16:05:27.671Z,98908.80
2019-05-19T16:07:55.393Z,98918.01
2019-05-19T16:10:28.096Z,98925.64
2019-05-19T16:12:56.935Z,98928.75
2019-05-19T16:15:25.794Z,98926.77
2019-05-19T16:17:56.156Z,98928.56
2019-05-19T16:20:28.364Z,98924.88
2019-05-19T16:22:57.992Z,98926.34
2019-05-19T16:25:30.122Z,98927.77
2019-05-19T16:28:01.424Z,98927.13
2019-05-19T16:30:30.173Z,98916.63
2019-05-19T16:33:01.624Z,98925.89
2019-05-19T16:35:28.923Z,98918.80
2019-05-19T16:37:58.704Z,98915.03
2019-05-19T16:40:28.886Z,98910.79
2019-05-19T16:42:57.469Z,98919.27
2019-05-19T16:45:31.854Z,98923.02
2019-05-19T16:47:59.990Z,98922.11
2019-05-19T16:50:31.757Z,98916.39
2019-05-19T16:52:59.819Z,98918.99
2019-05-19T16:55:31.756Z,98919.98
2019-05-19T16:57:59.827Z,98922.70
2019-05-19T17:00:28.491Z,98911.02
2019-05-19T17:03:02.256Z,98919.81
2019-05-19T17:05:31.863Z,98923.55
2019-05-19T17:08:03.176Z,98919.41
2019-05-19T17:10:33.996Z,98915.31
2019-05-19T17:13:02.482Z,98923.44
2019-05-19T17:15:32.177Z,98918.14
2019-05-19T17:18:08.311Z,98914.26
2019-05-19T17:20:36.223Z,98908.61
2019-05-19T17:23:12.181Z,98905.44
2019-05-19T17:25:39.988Z,98906.48
2019-05-19T17:28:08.949Z,98917.36
2019-05-19T17:30:37.659Z,98921.69
2019-05-19T17:33:07.744Z,98926.17
2019-05-19T17:35:36.401Z,98918.31
2019-05-19T17:38:07.997Z,98917.30
2019-05-19T17:40:37.714Z,98926.02
2019-05-19T17:43:07.013Z,98926.29
2019-05-19T17:45:36.561Z,98925.59
2019-05-19T17:48:10.084Z,98937.25
2019-05-19T17:50:38.682Z,98948.69
2019-05-19T17:53:06.880Z,98948.22
2019-05-19T17:55:39.460Z,98954.64
2019-05-19T17:58:07.546Z,98964.66
2019-05-19T18:00:38.763Z,98963.69
2019-05-19T18:03:10.959Z,98967.39
2019-05-19T18:05:39.839Z,98964.56
2019-05-19T18:08:10.119Z,98967.09
2019-05-19T18:10:37.932Z,98979.30
2019-05-19T18:13:10.637Z,98973.03
2019-05-19T18:15:40.073Z,98978.31
2019-05-19T18:18:09.935Z,98983.69
2019-05-19T18:20:38.579Z,98984.69
2019-05-19T18:23:07.900Z,98982.16
2019-05-19T18:25:40.789Z,98972.37
2019-05-19T18:28:10.082Z,98986.73
2019-05-19T18:30:39.281Z,98977.59
2019-05-19T18:33:08.808Z,98980.08
2019-05-19T18:35:39.690Z,98973.42
2019-05-19T18:38:09.743Z,98979.17
2019-05-19T18:40:39.247Z,98970.91
2019-05-19T18:43:11.003Z,98971.38
2019-05-19T18:45:40.166Z,98966.59
2019-05-19T18:48:10.380Z,98975.27
2019-05-19T18:50:39.167Z,98977.52
2019-05-19T18:53:08.259Z,98981.02
2019-05-19T18:55:37.567Z,98979.08
2019-05-19T18:58:07.529Z,98974.94
2019-05-19T19:00:40.473Z,98979.06
2019-05-19T19:03:10.206Z,98982.53
2019-05-19T19:05:40.698Z,98981.23
2019-05-19T19:08:09.088Z,98982.92
2019-05-19T19:10:39.205Z,98982.24
2019-05-19T19:13:14.405Z,98986.07
2019-05-19T19:15:42.885Z,98985.27
2019-05-19T19:18:12.142Z,98994.91
2019-05-19T19:20:41.510Z,98991.09
2019-05-19T19:23:15.772Z,98994.59
2019-05-19T19:25:45.081Z,98997.45
2019-05-19T19:28:15.082Z,99002.41
2019-05-19T19:30:47.060Z,99007.30
2019-05-19T19:33:20.991Z,99003.56
2019-05-19T19:35:49.449Z,99004.52
2019-05-19T19:38:20.308Z,99015.26
2019-05-19T19:40:50.379Z,99017.19
2019-05-19T19:43:21.014Z,99013.08
2019-05-19T19:45:55.911Z,99019.78
2019-05-19T19:48:23.639Z,99017.61
2019-05-19T19:50:52.297Z,99019.09
2019-05-19T19:53:22.244Z,99024.37
2019-05-19T19:55:50.695Z,99028.13
2019-05-19T19:58:23.753Z,99028.88
2019-05-19T20:00:54.658Z,99024.31
2019-05-19T20:03:24.280Z,99037.10
2019-05-19T20:05:55.474Z,99035.36
2019-05-19T20:08:28.474Z,99034.36
2019-05-19T20:10:58.455Z,99033.39
2019-05-19T20:13:29.191Z,99032.37
2019-05-19T20:15:58.526Z,99029.09
2019-05-19T20:18:26.927Z,99023.17
2019-05-19T20:20:56.718Z,99028.13
2019-05-19T20:23:25.568Z,99033.45
2019-05-19T20:25:55.647Z,99033.32
2019-05-19T20:28:24.983Z,99033.81
2019-05-19T20:30:54.389Z,99029.48
2019-05-19T20:33:24.116Z,99026.78
2019-05-19T20:35:53.209Z,99025.03
2019-05-19T20:38:24.361Z,99024.72
2019-05-19T20:41:00.972Z,99021.49
2019-05-19T20:43:33.280Z,99022.56
2019-05-19T20:46:01.855Z,99025.20
2019-05-19T20:48:32.760Z,99021.00
2019-05-19T20:50:58.991Z,99028.23
2019-05-19T20:53:29.194Z,99026.25
2019-05-19T20:55:58.037Z,99024.30
2019-05-19T20:58:26.720Z,99026.03
2019-05-19T21:00:55.659Z,99030.39
2019-05-19T21:03:31.126Z,99021.89
2019-05-19T21:06:04.451Z,99013.62
2019-05-19T21:08:35.082Z,99015.59
2019-05-19T21:11:04.227Z,99011.55
2019-05-19T21:13:37.007Z,99007.74
2019-05-19T21:16:05.067Z,99010.42
2019-05-19T21:18:39.766Z,99005.85
2019-05-19T21:21:11.505Z,98997.37
2019-05-19T21:23:42.470Z,98999.56
2019-05-19T21:26:18.626Z,99007.67
2019-05-19T21:28:46.163Z,99018.03
2019-05-19T21:31:15.421Z,99018.30
2019-05-19T21:33:48.686Z,99028.08
2019-05-19T21:36:20.939Z,99025.64
2019-05-19T21:38:50.078Z,99018.55
2019-05-19T21:41:23.905Z,99032.09
2019-05-19T21:43:58.734Z,99038.46
2019-05-19T21:46:30.559Z,99048.63
2019-05-19T21:49:02.027Z,99056.48
2019-05-19T21:51:32.963Z,99058.36
2019-05-19T21:54:02.576Z,99060.65
2019-05-19T21:56:32.567Z,99069.07
2019-05-19T21:59:02.140Z,99074.80
2019-05-19T22:01:36.976Z,99079.37
2019-05-19T22:04:06.569Z,99079.27
2019-05-19T22:06:40.028Z,99082.50
2019-05-19T22:09:14.705Z,99083.86
2019-05-19T22:11:43.756Z,99084.04
2019-05-19T22:14:13.866Z,99083.89
2019-05-19T22:16:42.348Z,99079.69
2019-05-19T22:19:11.033Z,99084.73
2019-05-19T22:21:41.235Z,99095.90
2019-05-19T22:24:10.130Z,99088.89
2019-05-19T22:26:39.748Z,99097.30
2019-05-19T22:29:09.986Z,99092.03
2019-05-19T22:31:38.454Z,99086.55
2019-05-19T22:34:07.943Z,99088.95
2019-05-19T22:36:38.922Z,99083.91
2019-05-19T22:39:08.003Z,99086.03
2019-05-19T22:41:41.844Z,99089.62
2019-05-19T22:44:14.154Z,99086.16
2019-05-19T22:46:47.140Z,99086.61
2019-05-19T22:49:17.903Z,99090.02
2019-05-19T22:51:47.204Z,99084.38
2019-05-19T22:54:22.831Z,99076.59
2019-05-19T22:56:52.169Z,99076.68
2019-05-19T22:59:24.296Z,99075.83
2019-05-19T23:01:54.019Z,99084.71
2019-05-19T23:04:24.900Z,99079.38
2019-05-19T23:06:54.650Z,99079.88
2019-05-19T23:09:24.365Z,99082.49
2019-05-19T23:11:55.237Z,99080.51
2019-05-19T23:14:30.880Z,99078.98
2019-05-19T23:17:04.551Z,99081.02
2019-05-19T23:19:37.121Z,99074.70
2019-05-19T23:22:09.765Z,99069.61
2019-05-19T23:24:47.603Z,99070.52
2019-05-19T23:27:16.946Z,99068.19
2019-05-19T23:29:46.175Z,99065.39
2019-05-19T23:32:15.339Z,99068.19
2019-05-19T23:34:43.333Z,99074.75
2019-05-19T23:37:15.232Z,99067.00
2019-05-19T23:39:45.984Z,99071.32
2019-05-19T23:42:14.135Z,99075.81
2019-05-19T23:44:45.080Z,99073.02
2019-05-19T23:47:14.596Z,99071.37
2019-05-19T23:49:45.038Z,99061.46
2019-05-19T23:52:15.457Z,99066.10
2019-05-19T23:54:47.601Z,99061.09
2019-05-19T23:57:19.587Z,99062.34
2019-05-19T23:59:48.781Z,99067.52
